Time;durP1;ratioP1;P1;durP2;ratioP2;P2;SDS_P1;SDS_P2;PMS_P1;PMS_P2;Temp;Humidity;BMP_temperature;BMP_pressure;BME280_temperature;BME280_humidity;BME280_pressure;Samples;Min_cycle;Max_cycle;Signal;HPM_P1;HPM_P2
2022/07/29 00:00:00;;;;;;;2.58;1.92;;;;;;;20.53;76.94;101122.64;1768817;80;21233;-90
2022/07/29 00:02:27;;;;;;;4.28;1.95;;;;;;;20.47;77.19;101126.21;1786987;80;21038;-90
2022/07/29 00:04:55;;;;;;;1.77;1.50;;;;;;;20.41;77.47;101117.48;1770706;80;20987;-91
2022/07/29 00:07:21;;;;;;;2.17;2.05;;;;;;;20.36;77.63;101117.55;1792827;79;21002;-88
2022/07/29 00:09:48;;;;;;;3.00;1.82;;;;;;;20.31;77.94;101113.98;1794172;80;20983;-88
2022/07/29 00:12:14;;;;;;;1.60;1.50;;;;;;;20.27;78.01;101104.59;1789984;79;21111;-89
2022/07/29 00:14:41;;;;;;;2.30;2.10;;;;;;;20.21;78.39;101106.03;1777030;80;20968;-89
2022/07/29 00:17:10;;;;;;;1.95;1.85;;;;;;;20.14;78.47;101104.89;1793742;80;20975;-89
2022/07/29 00:19:36;;;;;;;1.55;1.42;;;;;;;20.12;78.81;101110.02;1771903;80;21468;-90
2022/07/29 00:22:04;;;;;;;4.80;2.05;;;;;;;20.09;78.85;101113.31;1795729;80;21005;-90
2022/07/29 00:24:31;;;;;;;2.70;1.40;;;;;;;20.07;78.89;101118.44;1787366;80;21228;-90
2022/07/29 00:26:58;;;;;;;1.90;1.80;;;;;;;20.02;78.52;101122.02;1783233;80;20887;-90
2022/07/29 00:29:25;;;;;;;2.25;1.90;;;;;;;19.97;78.51;101130.44;1771835;79;20873;-89
2022/07/29 00:31:52;;;;;;;1.92;1.82;;;;;;;19.92;78.50;101129.16;1766952;80;21156;-89
2022/07/29 00:37:04;;;;;;;2.47;1.57;;;;;;;19.84;78.82;101136.03;1778918;80;21172;-90
2022/07/29 00:39:30;;;;;;;1.55;1.45;;;;;;;19.79;79.11;101138.28;1781285;80;21142;-89
2022/07/29 00:41:57;;;;;;;3.55;1.90;;;;;;;19.77;79.29;101139.41;1777669;80;21425;-89
2022/07/29 00:44:23;;;;;;;1.98;1.42;;;;;;;19.73;79.48;101138.00;1787869;80;21038;-88
2022/07/29 00:46:50;;;;;;;5.28;1.80;;;;;;;19.70;79.70;101132.47;1790322;80;20932;-89
2022/07/29 00:49:18;;;;;;;2.35;2.05;;;;;;;19.68;79.82;101132.56;1771926;80;21186;-89
2022/07/29 00:51:46;;;;;;;1.95;1.65;;;;;;;19.67;79.85;101134.02;1779374;80;20927;-89
2022/07/29 00:54:13;;;;;;;2.15;1.52;;;;;;;19.66;79.85;101133.69;1788501;80;20892;-89
2022/07/29 00:56:40;;;;;;;3.95;2.00;;;;;;;19.64;80.02;101131.66;1779347;80;20892;-91
2022/07/29 00:59:07;;;;;;;2.00;1.85;;;;;;;19.64;80.13;101128.98;1791032;80;20947;-89
2022/07/29 01:01:35;;;;;;;4.05;1.87;;;;;;;19.63;80.13;101128.16;1765816;79;21305;-89
2022/07/29 01:04:01;;;;;;;3.80;1.87;;;;;;;19.63;80.30;101132.15;1769089;79;20923;-88
2022/07/29 01:06:29;;;;;;;3.17;1.67;;;;;;;19.64;80.32;101127.16;1767858;80;20958;-86
2022/07/29 01:08:56;;;;;;;2.12;1.90;;;;;;;19.65;80.32;101130.66;1777174;80;21049;-89
2022/07/29 01:11:23;;;;;;;3.72;1.65;;;;;;;19.65;80.33;101134.66;1777450;80;20895;-88
2022/07/29 01:13:51;;;;;;;4.40;1.60;;;;;;;19.64;80.22;101135.14;1792208;80;20900;-90
2022/07/29 01:16:43;;;;;;;1.50;1.40;;;;;;;19.62;80.03;101142.42;1791768;80;20919;-85
2022/07/29 01:19:50;;;;;;;2.25;1.72;;;;;;;19.60;80.08;101142.22;1788184;80;21385;-86
2022/07/29 01:22:39;;;;;;;2.47;1.42;;;;;;;19.58;80.12;101137.52;1783855;80;20951;-85
2022/07/29 01:25:27;;;;;;;2.95;2.00;;;;;;;19.54;80.07;101130.32;1781976;79;20931;-86
2022/07/29 01:28:31;;;;;;;1.90;1.80;;;;;;;19.51;80.20;101131.91;1793611;80;22079;-85
2022/07/29 01:30:57;;;;;;;2.77;1.92;;;;;;;19.49;80.28;101137.02;1794024;80;20935;-85
2022/07/29 01:36:16;;;;;;;3.98;2.25;;;;;;;19.46;80.29;101140.30;1787181;79;20896;-86
2022/07/29 01:38:45;;;;;;;2.00;1.90;;;;;;;19.44;80.11;101134.28;1777038;80;21037;-86
2022/07/29 01:41:15;;;;;;;5.08;2.02;;;;;;;19.42;80.13;101141.55;1768387;79;21006;-86
2022/07/29 01:43:53;;;;;;;2.70;2.10;;;;;;;19.40;80.11;101138.68;1795443;80;20900;-87
2022/07/29 01:46:25;;;;;;;4.03;2.08;;;;;;;19.36;80.25;101139.92;1790470;80;21002;-86
2022/07/29 01:49:03;;;;;;;2.75;2.10;;;;;;;19.34;80.51;101136.56;1778331;80;20927;-85
2022/07/29 01:51:35;;;;;;;3.58;1.70;;;;;;;19.30;80.63;101133.81;1794161;80;20892;-88
2022/07/29 01:54:12;;;;;;;3.37;2.27;;;;;;;19.25;80.85;101129.77;1776618;80;21239;-89
2022/07/29 01:56:40;;;;;;;1.80;1.70;;;;;;;19.24;81.07;101128.56;1761370;80;20978;-90
2022/07/29 01:59:07;;;;;;;2.95;2.75;;;;;;;19.22;81.22;101122.54;1769095;80;20989;-90
2022/07/29 02:01:34;;;;;;;2.55;2.10;;;;;;;19.21;81.38;101127.03;1792080;80;20885;-89
2022/07/29 02:04:03;;;;;;;9.38;2.62;;;;;;;19.23;81.26;101136.17;1795227;80;21686;-89
2022/07/29 02:06:30;;;;;;;3.45;2.80;;;;;;;19.21;81.19;101136.33;1789051;80;21273;-89
2022/07/29 02:08:58;;;;;;;2.20;2.10;;;;;;;19.19;81.11;101136.12;1776881;80;20963;-91
2022/07/29 02:11:24;;;;;;;2.33;2.15;;;;;;;19.17;81.17;101137.58;1743929;80;20908;-90
2022/07/29 02:13:53;;;;;;;2.45;2.20;;;;;;;19.15;81.26;101137.36;1780017;80;20915;-92
2022/07/29 02:16:21;;;;;;;2.90;2.37;;;;;;;19.14;81.32;101136.53;1778689;80;20915;-90
2022/07/29 02:18:52;;;;;;;6.42;2.60;;;;;;;19.12;81.32;101131.83;1782786;80;22100;-90
2022/07/29 02:21:23;;;;;;;3.37;2.45;;;;;;;19.10;81.39;101132.91;1792026;80;21026;-90
2022/07/29 02:23:52;;;;;;;2.83;2.35;;;;;;;19.08;81.53;101133.07;1794243;80;21381;-90
2022/07/29 02:26:20;;;;;;;3.15;2.15;;;;;;;19.08;81.71;101134.41;1774590;80;20860;-91
2022/07/29 02:28:48;;;;;;;5.83;2.62;;;;;;;19.09;81.74;101129.92;1789809;80;20987;-91
2022/07/29 02:31:15;;;;;;;2.25;2.10;;;;;;;19.10;81.71;101130.26;1785233;80;21334;-90
2022/07/29 02:33:41;;;;;;;6.15;2.37;;;;;;;19.11;81.60;101131.95;1779647;80;21409;-91
2022/07/29 02:36:09;;;;;;;7.10;6.28;;;;;;;19.11;81.48;101130.62;1762121;80;20911;-90
2022/07/29 02:38:51;;;;;;;4.12;3.83;;;;;;;19.10;81.50;101134.24;1780709;80;20892;-91
2022/07/29 02:41:22;;;;;;;3.47;3.10;;;;;;;19.09;81.46;101137.89;1782127;80;20994;-91
2022/07/29 02:43:54;;;;;;;5.10;2.77;;;;;;;19.05;81.42;101138.17;1777355;80;21281;-90
2022/07/29 02:46:34;;;;;;;5.75;3.08;;;;;;;19.03;81.30;101145.91;1781711;80;20887;-91
2022/07/29 02:49:17;;;;;;;3.75;2.87;;;;;;;18.99;81.56;101150.66;1772374;80;20906;-91
2022/07/29 02:52:03;;;;;;;5.15;2.62;;;;;;;18.98;81.86;101147.64;1788180;80;20907;-91
2022/07/29 02:54:52;;;;;;;4.42;2.83;;;;;;;18.97;82.03;101152.61;1793903;80;20904;-90
2022/07/29 02:57:23;;;;;;;2.95;2.75;;;;;;;18.98;82.09;101156.11;1764241;79;21247;-90
2022/07/29 02:59:51;;;;;;;4.33;2.67;;;;;;;19.00;82.02;101160.31;1761354;80;20876;-89
2022/07/29 03:02:20;;;;;;;2.40;2.20;;;;;;;19.02;82.02;101157.03;1785257;80;20872;-91
2022/07/29 03:04:47;;;;;;;3.70;2.37;;;;;;;19.05;81.94;101160.77;1768950;79;21083;-89
2022/07/29 03:07:13;;;;;;;2.58;2.33;;;;;;;19.08;82.02;101154.34;1762116;80;21045;-90
2022/07/29 03:09:41;;;;;;;2.45;2.25;;;;;;;19.11;81.80;101154.06;1733461;80;21325;-89
2022/07/29 03:12:08;;;;;;;6.87;2.33;;;;;;;19.16;81.77;101156.31;1781350;80;20986;-90
2022/07/29 03:14:35;;;;;;;2.95;2.30;;;;;;;19.22;81.77;101162.42;1792932;79;20963;-89
2022/07/29 03:17:03;;;;;;;2.50;2.30;;;;;;;19.26;81.56;101165.17;1796398;80;20951;-90
2022/07/29 03:19:33;;;;;;;3.45;2.42;;;;;;;19.30;81.21;101169.25;1784217;79;20908;-91
2022/07/29 03:22:00;;;;;;;3.25;2.30;;;;;;;19.34;81.14;101167.14;1775548;77;21244;-89
2022/07/29 03:24:34;;;;;;;1.95;1.85;;;;;;;19.39;80.96;101172.42;1793202;78;20939;-89
2022/07/29 03:27:02;;;;;;;4.70;2.10;;;;;;;19.45;80.79;101174.55;1772905;79;21015;-88
2022/07/29 03:29:29;;;;;;;2.75;2.22;;;;;;;19.53;80.58;101179.67;1790998;80;20947;-90
2022/07/29 03:31:56;;;;;;;3.25;2.15;;;;;;;19.61;80.46;101173.19;1788388;80;20844;-90
2022/07/29 03:34:22;;;;;;;3.15;1.80;;;;;;;19.68;80.20;101174.31;1769372;80;21187;-90
2022/07/29 03:36:50;;;;;;;3.75;1.90;;;;;;;19.75;79.82;101173.30;1771416;80;20903;-90
2022/07/29 03:39:21;;;;;;;3.00;1.77;;;;;;;19.82;79.52;101174.42;1763519;80;20970;-90
2022/07/29 03:41:52;;;;;;;2.87;2.25;;;;;;;19.88;79.16;101169.88;1787715;80;21148;-89
2022/07/29 03:44:19;;;;;;;4.10;1.80;;;;;;;19.97;78.92;101174.86;1761121;80;20958;-90
2022/07/29 03:46:45;;;;;;;2.45;2.25;;;;;;;20.06;78.23;101175.34;1771712;80;21125;-89
2022/07/29 03:49:12;;;;;;;4.67;2.15;;;;;;;20.16;77.87;101178.83;1781697;80;20928;-91
2022/07/29 03:51:39;;;;;;;2.22;1.80;;;;;;;20.25;76.76;101181.14;1783711;79;20938;-89
2022/07/29 03:54:06;;;;;;;5.05;1.98;;;;;;;20.32;75.32;101175.63;1791887;80;20972;-89
2022/07/29 03:56:37;;;;;;;4.65;2.58;;;;;;;20.36;74.52;101176.99;1761317;79;20986;-90
2022/07/29 03:59:05;;;;;;;5.17;2.05;;;;;;;20.41;74.11;101181.42;1779052;80;21349;-90
2022/07/29 04:01:33;;;;;;;3.62;2.22;;;;;;;20.47;74.14;101180.83;1782983;80;20919;-89
2022/07/29 04:04:01;;;;;;;3.52;2.42;;;;;;;20.56;73.83;101179.13;1777591;80;20998;-90
2022/07/29 04:06:28;;;;;;;4.45;1.90;;;;;;;20.62;73.31;101175.94;1766338;80;20990;-90
2022/07/29 04:08:54;;;;;;;3.67;2.27;;;;;;;;;;1793946;80;21069;-90
2022/07/29 04:11:21;;;;;;;2.87;2.35;;;;;;;20.69;72.39;101197.02;1788913;80;21272;-93
2022/07/29 04:13:49;;;;;;;2.55;2.05;;;;;;;20.72;72.00;101193.72;1794404;80;20951;-90
2022/07/29 04:16:17;;;;;;;2.55;1.82;;;;;;;20.74;71.83;101199.25;1793441;80;20983;-91
2022/07/29 04:18:44;;;;;;;8.60;2.17;;;;;;;20.77;72.06;101202.15;1776969;80;20841;-90
2022/07/29 04:21:12;;;;;;;2.10;1.77;;;;;;;20.81;72.11;101203.05;1793608;80;20883;-90
2022/07/29 04:23:39;;;;;;;3.45;2.17;;;;;;;20.87;72.12;101203.78;1778936;80;21160;-91
2022/07/29 04:26:05;;;;;;;3.05;1.80;;;;;;;20.90;71.67;101195.52;1761051;80;21411;-91
2022/07/29 04:28:32;;;;;;;6.87;2.25;;;;;;;20.99;71.71;101192.97;1761171;79;20990;-91
2022/07/29 04:30:58;;;;;;;2.75;1.80;;;;;;;21.15;71.48;101199.84;1771178;79;21022;-90
2022/07/29 04:33:25;;;;;;;3.05;2.05;;;;;;;21.38;70.85;101186.94;1777091;80;20982;-89
2022/07/29 04:35:52;;;;;;;2.00;1.80;;;;;;;21.68;69.85;101189.83;1791310;80;21137;-90
2022/07/29 04:38:19;;;;;;;3.50;2.40;;;;;;;22.08;68.77;101188.55;1787395;80;21361;-89
2022/07/29 04:40:45;;;;;;;5.05;2.12;;;;;;;22.49;67.07;101181.38;1775482;80;20931;-89
2022/07/29 04:43:13;;;;;;;6.80;2.42;;;;;;;22.93;65.56;101182.16;1776676;80;21425;-90
2022/07/29 04:45:40;;;;;;;4.65;1.62;;;;;;;23.44;64.15;101180.07;1764458;80;20840;-89
2022/07/29 04:48:08;;;;;;;2.70;1.45;;;;;;;23.93;62.18;101181.55;1784816;79;20983;-87
2022/07/29 04:50:41;;;;;;;2.37;1.62;;;;;;;24.37;60.46;101182.05;1778394;80;20852;-89
2022/07/29 04:53:09;;;;;;;2.02;1.80;;;;;;;24.78;58.97;101182.52;1787770;79;21026;-88
2022/07/29 04:55:37;;;;;;;2.02;1.37;;;;;;;25.14;57.61;101182.06;1792551;80;20963;-88
2022/07/29 04:58:04;;;;;;;8.93;2.10;;;;;;;25.45;56.46;101179.43;1794782;80;20921;-88
2022/07/29 05:00:31;;;;;;;3.33;1.35;;;;;;;25.77;55.56;101181.09;1788690;79;21092;-88
2022/07/29 05:02:57;;;;;;;3.02;1.30;;;;;;;26.14;54.47;101182.70;1765174;79;21329;-88
2022/07/29 05:05:25;;;;;;;2.90;1.30;;;;;;;26.47;54.44;101178.69;1789273;79;20982;-89
2022/07/29 05:07:51;;;;;;;1.85;1.40;;;;;;;26.88;53.65;101182.86;1768504;80;20879;-89
2022/07/29 05:10:19;;;;;;;3.22;1.35;;;;;;;27.29;52.62;101178.34;1771434;80;20923;-88
2022/07/29 05:12:47;;;;;;;2.33;1.15;;;;;;;27.66;51.48;101177.84;1786660;80;21238;-89
2022/07/29 05:15:14;;;;;;;2.98;1.27;;;;;;;28.04;50.54;101181.15;1771632;80;21848;-88
2022/07/29 05:17:41;;;;;;;1.30;1.20;;;;;;;28.37;48.95;101177.05;1787242;80;20959;-88
2022/07/29 05:20:10;;;;;;;1.22;1.12;;;;;;;28.70;48.56;101178.66;1791287;80;21093;-88
2022/07/29 05:22:38;;;;;;;1.40;1.30;;;;;;;29.04;47.73;101187.80;1793225;80;21467;-88
2022/07/29 05:25:05;;;;;;;3.22;1.20;;;;;;;29.39;47.13;101189.94;1792191;80;21758;-90
2022/07/29 05:27:32;;;;;;;2.42;1.17;;;;;;;29.68;45.99;101190.64;1794185;80;20888;-90
2022/07/29 05:29:59;;;;;;;15.13;1.72;;;;;;;29.94;45.62;101192.08;1787490;80;20923;-90
2022/07/29 05:32:26;;;;;;;1.20;1.10;;;;;;;30.14;44.32;101195.33;1784687;80;21053;-88
2022/07/29 05:34:53;;;;;;;1.45;1.35;;;;;;;30.33;44.08;101186.94;1789676;80;20848;-87
2022/07/29 05:37:22;;;;;;;1.92;1.00;;;;;;;30.48;43.53;101178.58;1772788;80;21256;-88
2022/07/29 05:39:50;;;;;;;5.25;1.40;;;;;;;30.68;43.31;101179.90;1770996;80;21041;-88
2022/07/29 05:42:17;;;;;;;4.80;1.60;;;;;;;30.90;42.60;101179.15;1794155;80;21701;-90
2022/07/29 05:44:44;;;;;;;5.78;1.40;;;;;;;31.15;42.56;101175.23;1766501;80;20944;-88
2022/07/29 05:47:11;;;;;;;6.12;1.27;;;;;;;31.40;41.39;101179.37;1794235;80;20900;-88
2022/07/29 05:49:39;;;;;;;2.75;1.37;;;;;;;31.52;40.93;101175.47;1785650;80;22159;-88
2022/07/29 05:52:06;;;;;;;6.75;1.85;;;;;;;31.67;40.76;101165.16;1789737;80;20880;-88
2022/07/29 05:54:32;;;;;;;4.97;1.60;;;;;;;31.81;40.09;101159.11;1784423;80;20887;-88
2022/07/29 05:57:00;;;;;;;1.52;1.42;;;;;;;31.89;39.32;101165.64;1766043;79;20907;-88
2022/07/29 05:59:28;;;;;;;2.08;1.20;;;;;;;31.92;39.22;101160.29;1791120;80;21389;-90
2022/07/29 06:01:56;;;;;;;1.37;1.12;;;;;;;32.09;38.97;101160.62;1791438;80;21243;-90
2022/07/29 06:04:23;;;;;;;5.03;0.95;;;;;;;32.38;38.69;101165.89;1781867;80;20990;-87
2022/07/29 06:06:51;;;;;;;2.12;0.80;;;;;;;32.63;38.01;101163.97;1768989;80;20980;-89
2022/07/29 06:09:19;;;;;;;1.62;1.00;;;;;;;32.89;37.25;101165.28;1765440;80;20958;-88
2022/07/29 06:11:48;;;;;;;0.98;0.98;;;;;;;32.97;36.58;101165.81;1760850;80;20876;-88
2022/07/29 06:14:18;;;;;;;4.83;1.00;;;;;;;33.04;36.57;101159.75;1779252;80;20927;-89
2022/07/29 06:16:44;;;;;;;20.23;18.20;;;;;;;33.10;36.00;101158.56;1782943;80;20916;-92
2022/07/29 06:19:12;;;;;;;3.77;2.22;;;;;;;33.12;35.66;101162.70;1770809;80;21370;-94
2022/07/29 06:21:43;;;;;;;2.20;0.68;;;;;;;33.08;35.32;101156.06;1792807;80;21120;-91
2022/07/29 06:24:14;;;;;;;1.95;0.90;;;;;;;33.05;35.96;101161.94;1786441;80;20958;-90
2022/07/29 06:26:41;;;;;;;6.08;0.98;;;;;;;33.34;35.63;101159.50;1761728;80;21094;-91
2022/07/29 06:29:09;;;;;;;8.88;1.22;;;;;;;33.61;34.73;101157.26;1761332;80;21377;-88
2022/07/29 06:31:37;;;;;;;3.27;0.85;;;;;;;33.76;33.90;101150.03;1770936;80;21467;-90
2022/07/29 06:34:05;;;;;;;3.60;0.50;;;;;;;34.00;33.13;101151.73;1770396;80;20927;-88
2022/07/29 06:36:37;;;;;;;3.12;0.90;;;;;;;34.08;32.45;101151.08;1777877;79;21147;-88
2022/07/29 06:39:06;;;;;;;2.60;0.85;;;;;;;34.20;31.76;101145.97;1789033;80;21444;-89
2022/07/29 06:41:33;;;;;;;3.65;0.78;;;;;;;34.30;31.53;101145.37;1762760;80;20923;-90
2022/07/29 06:44:04;;;;;;;13.13;9.95;;;;;;;34.29;31.59;101149.70;1775404;78;21132;-89
2022/07/29 06:46:32;;;;;;;2.85;1.40;;;;;;;34.35;31.58;101144.14;1781235;78;20939;-89
2022/07/29 06:49:00;;;;;;;5.75;1.65;;;;;;;34.49;31.69;101146.63;1777185;78;20883;-89
2022/07/29 06:51:27;;;;;;;5.92;3.72;;;;;;;34.81;31.56;101151.14;1779552;79;21203;-87
2022/07/29 06:53:54;;;;;;;1.90;0.60;;;;;;;35.01;30.57;101142.02;1782336;80;20999;-87
2022/07/29 06:56:22;;;;;;;1.55;0.62;;;;;;;35.10;30.55;101142.45;1793908;80;20986;-89
2022/07/29 06:58:48;;;;;;;3.47;0.80;;;;;;;35.21;29.84;101147.61;1777353;80;20907;-89
2022/07/29 07:01:16;;;;;;;0.62;0.50;;;;;;;35.34;29.71;101143.22;1787800;80;20918;-90
2022/07/29 07:03:43;;;;;;;2.85;0.75;;;;;;;35.63;29.15;101148.14;1790957;80;21205;-89
2022/07/29 07:06:11;;;;;;;1.57;0.57;;;;;;;35.83;28.83;101143.56;1789196;80;20856;-90
2022/07/29 07:08:39;;;;;;;2.45;1.00;;;;;;;36.11;28.40;101139.09;1765735;80;20947;-90
2022/07/29 07:11:07;;;;;;;0.60;0.60;;;;;;;36.24;27.93;101136.05;1764381;80;21030;-91
2022/07/29 07:13:35;;;;;;;3.27;0.70;;;;;;;36.28;27.58;101140.45;1777895;80;21061;-86
2022/07/29 07:16:02;;;;;;;1.32;0.60;;;;;;;36.20;27.79;101134.07;1766523;80;21200;-89
2022/07/29 07:18:29;;;;;;;2.15;0.55;;;;;;;36.27;27.97;101136.90;1764708;80;21694;-90
2022/07/29 07:20:56;;;;;;;2.87;0.72;;;;;;;36.39;27.70;101132.69;1775816;79;21441;-91
2022/07/29 07:23:23;;;;;;;1.87;0.60;;;;;;;36.47;27.58;101133.62;1782591;80;20915;-88
2022/07/29 07:25:49;;;;;;;2.20;0.80;;;;;;;36.41;26.49;101134.63;1795274;80;20915;-86
2022/07/29 07:28:16;;;;;;;2.37;0.78;;;;;;;36.34;26.93;101135.36;1780955;80;21271;-89
2022/07/29 07:30:43;;;;;;;3.52;0.90;;;;;;;36.38;27.31;101131.59;1772989;80;21338;-90
2022/07/29 07:33:11;;;;;;;2.75;0.75;;;;;;;36.44;26.53;101131.41;1739278;80;21380;-90
2022/07/29 07:35:38;;;;;;;5.92;0.65;;;;;;;36.37;26.51;101138.94;1761515;80;20966;-89
2022/07/29 07:38:06;;;;;;;1.77;0.50;;;;;;;36.35;26.31;101136.99;1761682;80;20989;-90
2022/07/29 07:40:34;;;;;;;6.67;6.17;;;;;;;36.32;25.66;101138.87;1761624;80;21218;-88
2022/07/29 07:43:02;;;;;;;8.78;2.42;;;;;;;36.16;25.83;101136.47;1771836;80;21045;-89
2022/07/29 07:45:28;;;;;;;1.40;0.50;;;;;;;36.12;26.39;101136.67;1777629;80;20971;-88
2022/07/29 07:47:55;;;;;;;4.55;1.22;;;;;;;36.12;26.05;101134.48;1772000;80;20974;-88
2022/07/29 07:50:23;;;;;;;2.70;0.78;;;;;;;36.16;26.42;101136.47;1766989;80;21002;-89
2022/07/29 07:52:57;;;;;;;5.53;0.55;;;;;;;36.22;25.73;101138.20;1776497;80;21229;-88
2022/07/29 07:55:25;;;;;;;0.78;0.45;;;;;;;36.36;26.06;101144.12;1777064;79;20884;-89
2022/07/29 07:57:52;;;;;;;0.35;0.33;;;;;;;36.48;25.31;101140.73;1793731;80;21121;-87
2022/07/29 08:00:19;;;;;;;3.42;0.40;;;;;;;36.46;25.12;101142.06;1783233;80;20988;-88
2022/07/29 08:02:47;;;;;;;1.42;0.40;;;;;;;36.42;25.31;101141.77;1767366;80;21001;-87
2022/07/29 08:05:16;;;;;;;6.90;0.50;;;;;;;36.25;25.44;101140.97;1772021;80;21166;-88
2022/07/29 08:07:43;;;;;;;0.62;0.30;;;;;;;36.18;25.33;101144.41;1766437;80;20907;-88
2022/07/29 08:10:13;;;;;;;0.60;0.40;;;;;;;36.12;25.52;101138.58;1761510;80;21357;-89
2022/07/29 08:12:40;;;;;;;1.12;0.28;;;;;;;36.22;25.59;101145.55;1790391;80;20920;-85
2022/07/29 08:15:08;;;;;;;2.45;0.70;;;;;;;36.52;25.75;101141.88;1762179;80;20947;-86
2022/07/29 08:17:35;;;;;;;5.35;3.50;;;;;;;36.91;25.37;101143.78;1771367;79;21846;-89
2022/07/29 08:20:02;;;;;;;15.88;14.47;;;;;;;37.23;24.68;101144.44;1775112;80;21531;-87
2022/07/29 08:22:31;;;;;;;3.12;2.67;;;;;;;37.32;24.64;101145.06;1786842;80;21530;-87
2022/07/29 08:24:58;;;;;;;7.67;7.03;;;;;;;37.46;24.57;101143.28;1770931;79;20970;-87
2022/07/29 08:27:26;;;;;;;1.57;1.47;;;;;;;37.62;23.96;101141.54;1782281;79;21449;-88
2022/07/29 08:29:53;;;;;;;1.45;1.07;;;;;;;37.64;23.67;101148.43;1767713;80;21126;-87
2022/07/29 08:32:20;;;;;;;0.70;0.70;;;;;;;37.65;23.95;101150.06;1780651;80;20872;-87
2022/07/29 08:34:47;;;;;;;2.12;0.42;;;;;;;37.80;23.58;101149.91;1775809;80;20947;-87
2022/07/29 08:37:14;;;;;;;1.75;0.50;;;;;;;38.02;23.47;101142.46;1791389;80;20860;-86
2022/07/29 08:39:42;;;;;;;2.30;0.60;;;;;;;38.19;23.38;101145.02;1779186;80;21368;-87
2022/07/29 08:42:10;;;;;;;2.90;0.72;;;;;;;38.31;23.22;101144.81;1771669;80;21131;-86
2022/07/29 08:44:37;;;;;;;3.37;0.62;;;;;;;38.34;23.35;101143.75;1744787;80;21003;-85
2022/07/29 08:47:04;;;;;;;4.28;0.93;;;;;;;38.23;22.72;101141.22;1792732;80;20915;-89
2022/07/29 08:49:34;;;;;;;2.42;0.80;;;;;;;38.02;22.74;101144.35;1795506;80;20934;-88
2022/07/29 08:52:02;;;;;;;1.55;0.50;;;;;;;37.84;22.67;101150.52;1788889;80;20844;-88
2022/07/29 08:54:30;;;;;;;1.10;0.40;;;;;;;37.66;22.99;101148.15;1768661;80;21110;-86
2022/07/29 08:56:56;;;;;;;2.05;0.70;;;;;;;37.62;23.90;101142.91;1766159;79;20935;-89
2022/07/29 08:59:26;;;;;;;0.98;0.40;;;;;;;37.80;23.37;101149.38;1777504;80;20914;-86
2022/07/29 09:01:54;;;;;;;5.65;0.60;;;;;;;37.89;23.39;101143.70;1765484;80;21105;-88
2022/07/29 09:04:20;;;;;;;4.92;0.65;;;;;;;38.02;23.13;101137.50;1792684;80;20999;-87
2022/07/29 09:06:51;;;;;;;0.98;0.72;;;;;;;38.25;23.06;101143.16;1794254;80;21347;-87
2022/07/29 09:09:18;;;;;;;4.05;0.70;;;;;;;38.35;22.54;101145.41;1776599;79;21461;-88
2022/07/29 09:11:46;;;;;;;3.85;0.42;;;;;;;38.38;22.75;101144.05;1792158;79;20900;-88
2022/07/29 09:14:13;;;;;;;6.15;0.53;;;;;;;38.38;22.70;101141.83;1766288;80;20939;-90
2022/07/29 09:16:55;;;;;;;8.58;7.55;;;;;;;38.42;22.79;101142.44;1793540;80;20872;-88
2022/07/29 09:19:29;;;;;;;0.78;0.78;;;;;;;38.34;21.83;101140.19;1781894;80;21248;-87
2022/07/29 09:21:59;;;;;;;1.62;0.90;;;;;;;38.15;22.11;101141.16;1733715;80;20927;-90
2022/07/29 09:24:44;;;;;;;16.87;14.53;;;;;;;38.13;22.35;101140.07;1775385;79;20999;-87
2022/07/29 09:27:25;;;;;;;4.67;3.22;;;;;;;38.11;22.36;101130.44;1774051;80;20875;-87
2022/07/29 09:30:10;;;;;;;4.03;2.20;;;;;;;38.02;22.25;101132.03;1781299;80;20916;-87
2022/07/29 09:32:56;;;;;;;5.00;2.62;;;;;;;37.89;23.04;101138.77;1781945;79;21499;-89
2022/07/29 09:35:25;;;;;;;8.88;2.83;;;;;;;37.94;23.01;101134.69;1761570;80;21026;-87
2022/07/29 09:37:51;;;;;;;2.87;2.12;;;;;;;37.99;22.98;101129.24;1788518;80;21017;-87
2022/07/29 09:40:25;;;;;;;3.17;2.12;;;;;;;38.11;23.44;101131.29;1755526;80;21014;-88
2022/07/29 09:42:53;;;;;;;2.22;2.02;;;;;;;38.20;22.75;101123.40;1770528;80;20847;-87
2022/07/29 09:45:33;;;;;;;6.90;2.25;;;;;;;38.11;22.90;101119.48;1761406;80;21147;-87
2022/07/29 09:48:18;;;;;;;3.67;1.65;;;;;;;38.09;22.96;101123.88;1760618;80;20923;-88
2022/07/29 09:50:49;;;;;;;2.52;1.85;;;;;;;38.19;22.73;101122.28;1792943;79;21467;-86
2022/07/29 09:53:35;;;;;;;4.47;1.67;;;;;;;38.32;22.43;101125.37;1778851;79;20884;-88
2022/07/29 09:56:04;;;;;;;2.12;0.93;;;;;;;38.36;22.36;101117.45;1786304;80;20900;-87
2022/07/29 09:58:35;;;;;;;2.65;1.52;;;;;;;38.32;22.12;101120.44;1791619;80;20927;-89
2022/07/29 10:01:03;;;;;;;1.20;1.10;;;;;;;38.13;22.38;101116.78;1766457;79;20883;-90
2022/07/29 10:03:30;;;;;;;3.72;1.70;;;;;;;37.95;22.45;101118.01;1794500;80;21026;-87
2022/07/29 10:06:09;;;;;;;2.77;0.90;;;;;;;37.85;22.63;101117.11;1782400;79;20920;-90
2022/07/29 10:08:38;;;;;;;3.12;1.00;;;;;;;37.83;22.21;101112.44;1774086;79;20990;-88
2022/07/29 10:11:16;;;;;;;1.17;0.65;;;;;;;37.65;22.51;101119.14;1795839;80;21111;-87
2022/07/29 10:13:48;;;;;;;1.22;0.60;;;;;;;37.67;22.81;101119.16;1771511;78;20963;-86
2022/07/29 10:16:15;;;;;;;2.12;0.72;;;;;;;37.88;22.82;101118.75;1782735;76;21001;-87
2022/07/29 10:18:43;;;;;;;1.22;0.53;;;;;;;38.01;22.53;101111.19;1776866;78;20860;-85
2022/07/29 10:21:11;;;;;;;1.77;0.72;;;;;;;37.84;22.31;101117.66;1784827;79;20992;-88
2022/07/29 10:23:38;;;;;;;2.27;0.53;;;;;;;37.63;22.65;101117.20;1774045;80;21384;-88
2022/07/29 10:26:07;;;;;;;2.42;0.40;;;;;;;37.62;22.55;101117.75;1762268;80;20955;-87
2022/07/29 10:28:34;;;;;;;6.55;0.55;;;;;;;37.61;22.77;101116.64;1761082;80;20947;-84
2022/07/29 10:31:07;;;;;;;3.58;0.80;;;;;;;37.65;22.27;101119.14;1714760;80;21469;-88
2022/07/29 10:34:12;;;;;;;2.92;0.47;;;;;;;37.67;22.12;101114.23;1779526;80;20852;-89
2022/07/29 10:36:53;;;;;;;3.30;1.05;;;;;;;37.62;21.95;101105.95;1783523;80;21249;-88
2022/07/29 10:39:38;;;;;;;3.92;0.70;;;;;;;37.39;22.60;101113.95;1788562;80;20978;-86
2022/07/29 10:42:24;;;;;;;5.10;0.68;;;;;;;37.36;22.78;101113.11;1774660;80;21120;-87
2022/07/29 10:44:51;;;;;;;2.62;0.60;;;;;;;37.39;22.60;101113.39;1781287;80;20872;-91
2022/07/29 10:47:25;;;;;;;1.72;0.50;;;;;;;37.37;22.91;101114.74;1772264;79;20978;-89
2022/07/29 10:50:02;;;;;;;4.12;1.10;;;;;;;37.39;23.30;101112.58;1788911;80;21136;-89
2022/07/29 10:52:52;;;;;;;2.22;0.62;;;;;;;37.48;22.91;101109.64;1782912;80;21054;-87
2022/07/29 10:55:36;;;;;;;2.22;0.40;;;;;;;37.41;22.53;101103.02;1784201;80;20979;-89
2022/07/29 10:58:23;;;;;;;2.05;0.90;;;;;;;37.30;22.69;101107.56;1781489;80;21412;-89
2022/07/29 11:00:53;;;;;;;1.87;0.45;;;;;;;37.25;22.98;101099.87;1763382;79;21401;-88
2022/07/29 11:03:45;;;;;;;4.20;0.68;;;;;;;37.24;23.22;101107.26;1793606;80;21108;-88
2022/07/29 11:06:12;;;;;;;0.73;0.50;;;;;;;37.42;23.28;101092.89;1777550;79;20847;-93
2022/07/29 11:08:38;;;;;;;3.05;0.57;;;;;;;37.50;23.46;101111.03;1775390;80;21649;-86
2022/07/29 11:11:30;;;;;;;0.68;0.68;;;;;;;37.37;23.18;101107.35;1775893;79;20978;-88
2022/07/29 11:13:57;;;;;;;1.62;0.72;;;;;;;37.22;22.63;101102.58;1781584;80;21022;-90
2022/07/29 11:16:25;;;;;;;1.20;0.70;;;;;;;37.19;22.96;101103.62;1761933;80;21129;-89
2022/07/29 11:19:15;;;;;;;0.90;0.62;;;;;;;37.12;23.05;101095.08;1765841;79;20931;-88
2022/07/29 11:21:47;;;;;;;6.83;0.82;;;;;;;37.09;22.96;101097.52;1792763;80;20948;-89
2022/07/29 11:24:16;;;;;;;1.65;0.80;;;;;;;36.96;23.23;101100.09;1794074;80;21409;-87
2022/07/29 11:26:42;;;;;;;0.82;0.62;;;;;;;36.87;23.51;101103.81;1752135;79;20864;-89
2022/07/29 11:29:24;;;;;;;2.12;0.50;;;;;;;36.88;23.52;101106.81;1770639;80;21284;-87
2022/07/29 11:31:55;;;;;;;2.15;0.75;;;;;;;36.72;23.22;101100.35;1767995;79;21442;-86
2022/07/29 11:34:31;;;;;;;0.88;0.62;;;;;;;36.57;23.53;101102.05;1769020;79;20903;-88
2022/07/29 11:37:13;;;;;;;4.95;0.70;;;;;;;36.38;23.93;101092.80;1782131;80;20959;-89
2022/07/29 11:39:49;;;;;;;3.30;0.70;;;;;;;36.09;24.37;101096.19;1787365;80;21527;-88
2022/07/29 11:42:26;;;;;;;2.50;0.72;;;;;;;35.86;24.59;101091.22;1780907;80;20876;-87
2022/07/29 11:47:59;;;;;;;4.62;0.85;;;;;;;35.38;25.29;101095.30;1798524;79;22487;-89